createdAt,value
2019-05-23T00:01:08.625Z,25.40
2019-05-23T00:04:04.937Z,26.12
2019-05-23T00:06:53.568Z,24.77
2019-05-23T00:09:43.298Z,25.17
2019-05-23T00:12:44.907Z,25.60
2019-05-23T00:15:34.399Z,25.60
2019-05-23T00:18:05.571Z,26.68
2019-05-23T00:23:06.312Z,25.25
2019-05-23T00:25:36.048Z,27.00
2019-05-23T00:28:08.472Z,26.35
2019-05-23T00:30:51.896Z,23.80
2019-05-23T00:33:24.910Z,26.87
2019-05-23T00:35:54.672Z,26.10
2019-05-23T00:40:55.485Z,27.58
2019-05-23T00:43:26.940Z,24.75
2019-05-23T00:45:56.595Z,26.15
2019-05-23T00:48:26.659Z,28.57
2019-05-23T00:53:28.019Z,29.40
2019-05-23T00:55:57.054Z,29.20
2019-05-23T00:58:27.582Z,27.20
2019-05-23T01:00:59.055Z,28.00
2019-05-23T01:03:30.662Z,26.10
2019-05-23T01:06:01.445Z,27.70
2019-05-23T01:08:33.491Z,28.10
2019-05-23T01:11:03.298Z,27.50
2019-05-23T01:13:32.681Z,28.15
2019-05-23T01:16:02.305Z,29.25
2019-05-23T01:18:31.590Z,26.33
2019-05-23T01:21:25.978Z,28.95
2019-05-23T01:24:02.679Z,25.32
2019-05-23T01:29:02.706Z,25.30
2019-05-23T01:34:07.751Z,26.50
2019-05-23T01:36:39.646Z,28.10
2019-05-23T01:39:11.591Z,27.15
2019-05-23T01:46:42.167Z,26.00
2019-05-23T01:49:12.908Z,26.48
2019-05-23T01:51:42.411Z,30.75
2019-05-23T01:54:12.128Z,29.75
2019-05-23T01:56:42.683Z,28.83
2019-05-23T02:01:41.432Z,28.75
2019-05-23T02:04:10.925Z,28.80
2019-05-23T02:06:40.134Z,26.77
2019-05-23T02:09:10.990Z,27.80
2019-05-23T02:11:41.483Z,32.30
2019-05-23T02:14:11.571Z,30.23
2019-05-23T02:16:41.788Z,31.00
2019-05-23T02:21:42.398Z,27.58
2019-05-23T02:24:11.469Z,27.37
2019-05-23T02:26:41.739Z,28.07
2019-05-23T02:31:41.298Z,32.83
2019-05-23T02:34:10.537Z,31.45
2019-05-23T02:36:39.935Z,31.40
2019-05-23T02:39:23.150Z,29.45
2019-05-23T02:41:56.543Z,30.90
2019-05-23T02:44:27.499Z,30.92
2019-05-23T02:47:14.007Z,33.38
2019-05-23T02:49:45.033Z,30.65
2019-05-23T02:52:44.645Z,31.42
2019-05-23T02:55:25.570Z,37.63
2019-05-23T02:58:17.933Z,32.03
2019-05-23T03:01:29.888Z,32.85
2019-05-23T03:04:05.403Z,29.32
2019-05-23T03:06:37.582Z,33.28
2019-05-23T03:09:07.797Z,32.42
2019-05-23T03:11:48.406Z,34.08
2019-05-23T03:14:18.945Z,31.73
2019-05-23T03:16:52.069Z,30.77
2019-05-23T03:19:42.719Z,35.30
2019-05-23T03:22:41.931Z,36.60
2019-05-23T03:26:15.963Z,33.83
2019-05-23T03:28:45.432Z,31.70
2019-05-23T03:31:33.307Z,29.18
2019-05-23T03:34:04.539Z,30.52
2019-05-23T03:36:34.000Z,29.85
2019-05-23T03:39:06.602Z,32.83
2019-05-23T03:41:37.301Z,33.42
2019-05-23T03:44:08.285Z,33.10
2019-05-23T03:46:41.571Z,29.48
2019-05-23T03:49:13.498Z,33.58
2019-05-23T03:51:44.391Z,33.13
2019-05-23T03:54:14.555Z,34.75
2019-05-23T03:56:43.480Z,34.60
2019-05-23T03:59:13.794Z,30.70
2019-05-23T04:01:48.405Z,29.42
2019-05-23T04:04:15.565Z,30.85
2019-05-23T04:06:44.558Z,29.05
2019-05-23T04:09:13.548Z,29.10
2019-05-23T04:11:42.576Z,31.23
2019-05-23T04:14:11.776Z,28.98
2019-05-23T04:16:41.634Z,32.90
2019-05-23T04:19:11.299Z,30.25
2019-05-23T04:21:40.474Z,30.57
2019-05-23T04:24:09.986Z,28.90
2019-05-23T04:26:39.501Z,28.25
2019-05-23T04:29:08.962Z,30.20
2019-05-23T04:31:38.555Z,31.00
2019-05-23T04:34:08.094Z,33.83
2019-05-23T04:36:37.461Z,25.68
2019-05-23T04:39:06.961Z,24.18
2019-05-23T04:41:36.194Z,20.25
2019-05-23T04:44:05.919Z,21.10
2019-05-23T04:46:35.553Z,21.00
2019-05-23T04:49:05.900Z,16.45
2019-05-23T04:51:36.875Z,17.67
2019-05-23T04:54:06.817Z,17.20
2019-05-23T04:56:36.296Z,14.78
2019-05-23T04:59:06.628Z,18.20
2019-05-23T05:01:37.588Z,16.80
2019-05-23T05:04:07.058Z,16.12
2019-05-23T05:06:56.165Z,15.98
2019-05-23T05:09:29.599Z,14.00
2019-05-23T05:11:59.785Z,13.43
2019-05-23T05:14:29.657Z,12.45
2019-05-23T05:19:28.579Z,12.60
2019-05-23T05:24:28.098Z,16.02
2019-05-23T05:26:57.556Z,15.32
2019-05-23T05:29:26.731Z,15.80
2019-05-23T05:31:56.695Z,14.40
2019-05-23T05:36:53.930Z,15.15
2019-05-23T05:39:26.402Z,13.53
2019-05-23T05:41:55.685Z,12.05
2019-05-23T05:44:24.928Z,13.90
2019-05-23T05:46:54.160Z,14.78
2019-05-23T05:49:23.952Z,16.40
2019-05-23T05:51:53.045Z,17.15
2019-05-23T05:54:22.583Z,15.72
2019-05-23T05:56:51.669Z,14.83
2019-05-23T05:59:21.349Z,14.20
2019-05-23T06:01:52.707Z,14.45
2019-05-23T06:06:58.904Z,17.73
2019-05-23T06:09:29.805Z,11.65
2019-05-23T06:11:58.688Z,15.45
2019-05-23T06:16:56.899Z,13.15
2019-05-23T06:19:27.307Z,11.30
2019-05-23T06:21:56.421Z,12.10
2019-05-23T06:24:42.446Z,10.95
2019-05-23T06:26:57.825Z,11.45
2019-05-23T06:29:27.118Z,11.50
2019-05-23T06:31:57.058Z,12.53
2019-05-23T06:34:26.294Z,9.90
2019-05-23T06:36:55.606Z,12.98
2019-05-23T06:39:25.048Z,11.55
2019-05-23T06:41:55.505Z,13.30
2019-05-23T06:44:25.395Z,11.50
2019-05-23T06:46:54.968Z,11.20
2019-05-23T06:49:24.546Z,13.25
2019-05-23T06:51:53.819Z,12.88
2019-05-23T06:54:23.140Z,15.00
2019-05-23T06:56:52.741Z,11.63
2019-05-23T07:01:51.711Z,10.90
2019-05-23T07:06:51.499Z,15.20
2019-05-23T07:09:21.100Z,12.73
2019-05-23T07:11:54.953Z,14.25
2019-05-23T07:14:24.588Z,20.25
2019-05-23T07:16:54.573Z,13.00
2019-05-23T07:19:24.717Z,13.72
2019-05-23T07:24:23.615Z,11.97
2019-05-23T07:26:53.421Z,14.73
2019-05-23T07:29:22.959Z,15.72
2019-05-23T07:31:52.859Z,14.70
2019-05-23T07:34:23.395Z,15.98
2019-05-23T07:36:52.706Z,15.30
2019-05-23T07:39:22.503Z,12.37
2019-05-23T07:41:52.420Z,11.05
2019-05-23T07:44:22.119Z,11.88
2019-05-23T07:46:53.141Z,15.38
2019-05-23T07:49:23.949Z,13.78
2019-05-23T07:51:53.143Z,20.08
2019-05-23T07:54:34.297Z,13.68
2019-05-23T07:57:04.587Z,10.82
2019-05-23T07:59:33.830Z,14.30
2019-05-23T08:02:25.866Z,13.18
2019-05-23T08:07:10.864Z,14.75
2019-05-23T08:09:40.421Z,11.15
2019-05-23T08:12:09.581Z,33.78
2019-05-23T08:17:08.070Z,12.28
2019-05-23T08:19:49.111Z,10.98
2019-05-23T08:22:07.891Z,12.60
2019-05-23T08:24:36.901Z,11.83
2019-05-23T08:27:06.698Z,11.38
2019-05-23T08:32:04.910Z,11.35
2019-05-23T08:34:41.697Z,11.40
2019-05-23T08:37:05.931Z,10.68
2019-05-23T08:39:35.820Z,10.53
2019-05-23T08:42:05.324Z,9.75
2019-05-23T08:44:34.707Z,8.73
2019-05-23T08:47:07.598Z,10.60
2019-05-23T08:49:37.470Z,12.20
2019-05-23T08:52:07.727Z,14.13
2019-05-23T08:57:07.819Z,6.70
2019-05-23T08:59:37.704Z,6.90
2019-05-23T09:02:08.915Z,5.08
2019-05-23T09:04:38.435Z,6.25
2019-05-23T09:07:09.611Z,5.42
2019-05-23T09:12:08.587Z,6.85
2019-05-23T09:17:07.150Z,5.80
2019-05-23T09:19:37.587Z,9.03
2019-05-23T09:22:06.904Z,5.80
2019-05-23T09:24:35.994Z,6.42
2019-05-23T09:27:06.663Z,6.10
2019-05-23T09:32:05.747Z,5.80
2019-05-23T09:37:04.663Z,6.83
2019-05-23T09:42:04.988Z,6.60
2019-05-23T09:44:34.101Z,4.80
2019-05-23T09:47:03.116Z,8.43
2019-05-23T09:49:32.122Z,6.75
2019-05-23T09:52:01.678Z,6.20
2019-05-23T09:54:30.812Z,7.97
2019-05-23T09:56:59.954Z,6.37
2019-05-23T09:59:29.524Z,4.75
2019-05-23T10:04:28.892Z,7.08
2019-05-23T10:06:57.960Z,6.47
2019-05-23T10:09:27.168Z,6.17
2019-05-23T10:11:56.685Z,6.42
2019-05-23T10:16:57.130Z,8.53
2019-05-23T10:19:25.937Z,8.45
2019-05-23T10:21:55.333Z,7.40
2019-05-23T10:24:24.807Z,6.58
2019-05-23T10:26:54.590Z,6.62
2019-05-23T10:29:24.522Z,7.25
2019-05-23T10:31:54.120Z,5.83
2019-05-23T10:34:27.824Z,6.25
2019-05-23T10:36:57.073Z,6.47
2019-05-23T10:39:26.656Z,5.75
2019-05-23T10:44:24.439Z,6.58
2019-05-23T10:46:53.776Z,5.30
2019-05-23T10:49:23.766Z,5.12
2019-05-23T10:54:23.062Z,5.28
2019-05-23T10:56:52.894Z,6.45
2019-05-23T10:59:22.823Z,6.75
2019-05-23T11:01:53.053Z,5.95
2019-05-23T11:04:23.291Z,5.55
2019-05-23T11:06:53.699Z,5.62
2019-05-23T11:09:37.518Z,9.35
2019-05-23T11:11:55.485Z,10.72
2019-05-23T11:14:25.736Z,5.42
2019-05-23T11:16:55.458Z,5.80
2019-05-23T11:19:25.506Z,6.40
2019-05-23T11:21:55.137Z,5.45
2019-05-23T11:24:24.731Z,4.55
2019-05-23T11:29:27.150Z,4.97
2019-05-23T11:31:56.938Z,6.62
2019-05-23T11:34:26.619Z,6.10
2019-05-23T11:39:25.335Z,4.58
2019-05-23T11:41:57.767Z,4.87
2019-05-23T11:44:26.821Z,4.75
2019-05-23T11:46:55.981Z,6.50
2019-05-23T11:49:26.779Z,5.00
2019-05-23T11:51:56.685Z,5.35
2019-05-23T11:56:55.487Z,5.55
2019-05-23T11:59:25.470Z,4.85
2019-05-23T12:02:13.294Z,3.80
2019-05-23T12:04:43.953Z,4.95
2019-05-23T12:07:24.822Z,5.35
2019-05-23T12:09:54.492Z,6.45
2019-05-23T12:12:24.685Z,5.37
2019-05-23T12:19:55.426Z,8.33
2019-05-23T12:22:25.978Z,6.22
2019-05-23T12:24:55.558Z,4.80
2019-05-23T12:27:25.481Z,6.05
2019-05-23T12:29:55.317Z,5.83
2019-05-23T12:32:25.528Z,4.87
2019-05-23T12:37:27.492Z,4.30
2019-05-23T12:39:58.150Z,5.75
2019-05-23T12:42:27.537Z,5.53
2019-05-23T12:47:50.342Z,5.35
2019-05-23T12:50:23.320Z,4.15
2019-05-23T12:55:23.441Z,5.08
2019-05-23T12:57:53.282Z,4.47
2019-05-23T13:00:32.849Z,5.37
2019-05-23T13:03:02.035Z,4.25
2019-05-23T13:05:31.827Z,4.87
2019-05-23T13:08:00.746Z,6.42
2019-05-23T13:10:32.833Z,7.83
2019-05-23T13:13:02.272Z,5.20
2019-05-23T13:15:32.302Z,4.35
2019-05-23T13:18:01.584Z,6.00
2019-05-23T13:20:32.560Z,4.22
2019-05-23T13:23:01.694Z,6.10
2019-05-23T13:27:59.777Z,4.37
2019-05-23T13:30:28.971Z,5.30
2019-05-23T13:32:59.089Z,6.03
2019-05-23T13:40:27.508Z,4.65
2019-05-23T13:42:57.245Z,4.25
2019-05-23T13:45:26.840Z,3.80
2019-05-23T13:47:57.660Z,4.37
2019-05-23T13:52:58.019Z,4.25
2019-05-23T13:55:27.830Z,4.20
2019-05-23T13:57:57.311Z,4.65
2019-05-23T14:00:28.159Z,4.03
2019-05-23T14:02:57.654Z,5.00
2019-05-23T14:05:26.846Z,4.03
2019-05-23T14:08:10.751Z,5.40
2019-05-23T14:10:28.742Z,6.22
2019-05-23T14:12:58.604Z,5.75
2019-05-23T14:15:41.645Z,3.98
2019-05-23T14:20:46.553Z,3.70
2019-05-23T14:23:22.675Z,5.17
2019-05-23T14:28:21.402Z,5.10
2019-05-23T14:31:04.942Z,3.45
2019-05-23T14:34:03.136Z,4.35
2019-05-23T14:36:46.536Z,4.28
2019-05-23T14:41:57.313Z,4.20
2019-05-23T14:44:27.580Z,3.52
2019-05-23T14:49:53.687Z,4.05
2019-05-23T14:52:29.425Z,5.00
2019-05-23T14:55:02.062Z,4.00
2019-05-23T14:57:31.490Z,6.12
2019-05-23T15:00:00.857Z,4.37
2019-05-23T15:02:30.506Z,2.92
2019-05-23T15:05:00.117Z,5.55
2019-05-23T15:07:30.382Z,5.10
2019-05-23T15:09:59.565Z,4.90
2019-05-23T15:12:29.889Z,4.85
2019-05-23T15:14:59.160Z,3.30
2019-05-23T15:17:28.140Z,5.25
2019-05-23T15:19:57.824Z,5.17
2019-05-23T15:22:30.278Z,4.90
2019-05-23T15:25:03.480Z,4.92
2019-05-23T15:27:33.323Z,3.75
2019-05-23T15:30:02.854Z,5.12
2019-05-23T15:32:35.745Z,5.12
2019-05-23T15:35:06.110Z,5.10
2019-05-23T15:37:35.655Z,5.62
2019-05-23T15:40:05.014Z,3.62
2019-05-23T15:42:34.236Z,4.17
2019-05-23T15:45:04.582Z,3.52
2019-05-23T15:47:35.906Z,4.20
2019-05-23T15:50:11.307Z,3.30
2019-05-23T15:55:34.478Z,5.30
2019-05-23T15:58:23.524Z,5.80
2019-05-23T16:00:59.562Z,4.60
2019-05-23T16:03:37.413Z,4.95
2019-05-23T16:06:10.739Z,5.67
2019-05-23T16:11:17.390Z,4.80
2019-05-23T16:13:48.722Z,4.80
2019-05-23T16:18:47.904Z,5.10
2019-05-23T16:21:18.432Z,4.78
2019-05-23T16:23:47.795Z,5.50
2019-05-23T16:26:17.627Z,4.20
2019-05-23T16:28:46.837Z,7.10
2019-05-23T16:31:15.945Z,3.70
2019-05-23T16:33:57.559Z,8.63
2019-05-23T16:36:27.819Z,3.80
2019-05-23T16:38:57.981Z,3.87
2019-05-23T16:41:27.711Z,5.83
2019-05-23T16:43:57.565Z,7.50
2019-05-23T16:48:56.462Z,3.80
2019-05-23T16:51:26.622Z,4.28
2019-05-23T16:53:57.817Z,6.70
2019-05-23T16:56:32.838Z,5.70
2019-05-23T16:59:24.794Z,4.20
2019-05-23T17:02:06.372Z,4.90
2019-05-23T17:05:09.310Z,6.12
2019-05-23T17:07:57.918Z,3.95
2019-05-23T17:10:41.634Z,5.17
2019-05-23T17:13:15.575Z,5.10
2019-05-23T17:18:57.571Z,5.20
2019-05-23T17:21:46.563Z,5.20
2019-05-23T17:24:23.880Z,5.85
2019-05-23T17:27:15.527Z,4.15
2019-05-23T17:29:54.806Z,3.30
2019-05-23T17:32:27.133Z,4.65
2019-05-23T17:34:57.781Z,3.65
2019-05-23T17:37:28.427Z,4.20
2019-05-23T17:39:58.555Z,4.35
2019-05-23T17:42:28.078Z,4.72
2019-05-23T17:44:57.599Z,3.55
2019-05-23T17:47:27.747Z,4.12
2019-05-23T17:49:57.535Z,4.45
2019-05-23T17:52:28.887Z,3.70
2019-05-23T17:54:58.582Z,4.28
2019-05-23T17:57:27.830Z,4.85
2019-05-23T17:59:57.596Z,4.03
2019-05-23T18:04:56.825Z,4.53
2019-05-23T18:07:26.119Z,3.85
2019-05-23T18:09:55.967Z,2.77
2019-05-23T18:12:25.300Z,5.83
2019-05-23T18:14:54.848Z,5.47
2019-05-23T18:17:24.019Z,4.35
2019-05-23T18:19:53.047Z,6.17
2019-05-23T18:22:22.468Z,3.72
2019-05-23T18:24:52.430Z,3.50
2019-05-23T18:27:21.918Z,4.70
2019-05-23T18:29:51.524Z,3.95
2019-05-23T18:32:23.108Z,4.53
2019-05-23T18:34:53.303Z,5.75
2019-05-23T18:37:22.735Z,4.92
2019-05-23T18:44:49.877Z,4.50
2019-05-23T18:47:25.117Z,3.95
2019-05-23T18:49:54.609Z,3.62
2019-05-23T18:52:24.010Z,4.67
2019-05-23T18:54:53.296Z,4.55
2019-05-23T18:57:22.610Z,3.95
2019-05-23T19:04:50.830Z,5.15
2019-05-23T19:07:20.518Z,4.83
2019-05-23T19:09:50.538Z,4.92
2019-05-23T19:12:19.807Z,6.20
2019-05-23T19:14:48.791Z,4.92
2019-05-23T19:17:18.652Z,5.50
2019-05-23T19:19:48.633Z,5.33
2019-05-23T19:22:18.318Z,3.80
2019-05-23T19:24:47.307Z,4.75
2019-05-23T19:27:18.521Z,5.28
2019-05-23T19:29:48.437Z,5.72
2019-05-23T19:32:18.857Z,5.12
2019-05-23T19:34:48.183Z,4.12
2019-05-23T19:37:18.009Z,7.37
2019-05-23T19:39:47.962Z,5.42
2019-05-23T19:42:17.957Z,5.40
2019-05-23T19:44:47.016Z,5.28
2019-05-23T19:47:17.609Z,6.28
2019-05-23T19:52:18.838Z,5.65
2019-05-23T19:54:49.156Z,5.45
2019-05-23T19:57:19.076Z,5.50
2019-05-23T19:59:48.970Z,7.85
2019-05-23T20:02:29.379Z,6.10
2019-05-23T20:05:05.468Z,5.95
2019-05-23T20:07:35.558Z,5.70
2019-05-23T20:10:05.529Z,8.50
2019-05-23T20:12:34.945Z,4.72
2019-05-23T20:15:04.670Z,7.28
2019-05-23T20:17:34.378Z,6.17
2019-05-23T20:20:03.786Z,7.17
2019-05-23T20:22:33.312Z,6.72
2019-05-23T20:25:02.202Z,5.87
2019-05-23T20:27:31.593Z,6.25
2019-05-23T20:30:01.026Z,6.72
2019-05-23T20:32:30.951Z,5.33
2019-05-23T20:35:01.641Z,7.00
2019-05-23T20:40:00.636Z,5.37
2019-05-23T20:42:29.892Z,4.78
2019-05-23T20:44:59.751Z,6.42
2019-05-23T20:47:30.819Z,7.03
2019-05-23T20:49:59.933Z,7.90
2019-05-23T20:52:29.615Z,6.45
2019-05-23T20:57:29.738Z,8.08
2019-05-23T21:04:59.082Z,9.25
2019-05-23T21:07:28.748Z,9.68
2019-05-23T21:09:59.162Z,8.35
2019-05-23T21:12:30.639Z,9.70
2019-05-23T21:17:58.531Z,11.00
2019-05-23T21:22:57.499Z,7.97
2019-05-23T21:25:28.270Z,9.48
2019-05-23T21:27:58.604Z,8.18
2019-05-23T21:32:57.637Z,9.18
2019-05-23T21:37:55.721Z,8.18
2019-05-23T21:43:21.728Z,7.72
2019-05-23T21:48:21.749Z,9.38
2019-05-23T21:53:19.452Z,6.33
2019-05-23T21:55:48.536Z,7.58
2019-05-23T21:58:17.987Z,8.68
2019-05-23T22:01:30.086Z,9.58
2019-05-23T22:04:13.780Z,9.55
2019-05-23T22:09:13.610Z,6.97
2019-05-23T22:11:42.749Z,6.17
2019-05-23T22:16:40.438Z,7.03
2019-05-23T22:19:12.550Z,6.28
2019-05-23T22:21:41.933Z,7.20
2019-05-23T22:24:11.508Z,7.30
2019-05-23T22:26:40.729Z,7.83
2019-05-23T22:31:38.598Z,7.20
2019-05-23T22:37:02.429Z,7.22
2019-05-23T22:39:32.018Z,8.88
2019-05-23T22:42:01.030Z,6.85
2019-05-23T22:44:30.925Z,8.03
2019-05-23T22:47:03.500Z,7.17
2019-05-23T22:49:32.536Z,10.05
2019-05-23T22:52:01.584Z,10.10
2019-05-23T22:54:30.663Z,7.42
2019-05-23T22:57:00.187Z,6.45
2019-05-23T22:59:30.296Z,7.37
2019-05-23T23:02:00.307Z,6.92
2019-05-23T23:04:30.465Z,7.12
2019-05-23T23:07:00.592Z,6.87
2019-05-23T23:11:59.613Z,7.33
2019-05-23T23:14:29.931Z,6.20
2019-05-23T23:16:59.868Z,6.65
2019-05-23T23:19:29.587Z,6.15
2019-05-23T23:21:59.439Z,7.33
2019-05-23T23:24:29.299Z,8.05
2019-05-23T23:26:58.936Z,6.85
2019-05-23T23:29:28.855Z,7.55
2019-05-23T23:31:58.589Z,6.22
2019-05-23T23:34:28.301Z,6.78
2019-05-23T23:36:58.490Z,6.67
2019-05-23T23:39:27.659Z,5.87
2019-05-23T23:44:33.501Z,6.97
2019-05-23T23:47:25.702Z,9.58
2019-05-23T23:52:59.800Z,9.65
2019-05-23T23:55:48.585Z,9.80
2019-05-23T23:58:17.074Z,11.20
